createdAt,value
2018-09-21T00:01:13.531Z,9.88
2018-09-21T00:03:46.176Z,8.33
2018-09-21T00:06:14.595Z,11.18
2018-09-21T00:08:43.013Z,6.62
2018-09-21T00:11:11.429Z,7.47
2018-09-21T00:13:39.827Z,5.65
2018-09-21T00:16:08.250Z,7.58
2018-09-21T00:18:36.660Z,6.12
2018-09-21T00:21:05.109Z,9.13
2018-09-21T00:23:33.480Z,7.83
2018-09-21T00:26:01.981Z,5.83
2018-09-21T00:28:30.436Z,6.10
2018-09-21T00:30:58.863Z,7.85
2018-09-21T00:33:27.282Z,5.87
2018-09-21T00:35:55.692Z,6.37
2018-09-21T00:38:24.108Z,7.70
2018-09-21T00:40:53.187Z,5.95
2018-09-21T00:43:21.650Z,5.58
2018-09-21T00:45:50.054Z,7.42
2018-09-21T00:48:18.460Z,6.08
2018-09-21T00:50:46.918Z,5.95
2018-09-21T00:53:15.445Z,8.58
2018-09-21T00:55:43.874Z,5.58
2018-09-21T00:58:12.284Z,7.10
2018-09-21T01:00:40.696Z,5.20
2018-09-21T01:03:09.137Z,5.87
2018-09-21T01:05:37.550Z,5.53
2018-09-21T01:08:05.996Z,7.22
2018-09-21T01:10:34.426Z,6.72
2018-09-21T01:13:02.850Z,5.75
2018-09-21T01:15:31.272Z,6.83
2018-09-21T01:17:59.698Z,9.08
2018-09-21T01:20:28.125Z,6.60
2018-09-21T01:22:56.544Z,6.85
2018-09-21T01:25:24.956Z,4.97
2018-09-21T01:27:53.392Z,5.85
2018-09-21T01:30:21.803Z,5.42
2018-09-21T01:32:50.229Z,7.10
2018-09-21T01:35:18.668Z,6.25
2018-09-21T01:37:47.078Z,8.58
2018-09-21T01:40:15.486Z,9.10
2018-09-21T01:42:43.914Z,6.92
2018-09-21T01:45:12.323Z,7.40
2018-09-21T01:47:40.749Z,6.15
2018-09-21T01:50:09.199Z,8.00
2018-09-21T01:52:37.604Z,7.42
2018-09-21T01:55:06.050Z,6.85
2018-09-21T01:57:34.445Z,7.50
2018-09-21T02:00:02.925Z,7.50
2018-09-21T02:02:31.388Z,7.47
2018-09-21T02:04:59.813Z,5.05
2018-09-21T02:07:28.304Z,5.08
2018-09-21T02:09:56.760Z,7.47
2018-09-21T02:12:25.189Z,8.33
2018-09-21T02:14:53.610Z,10.10
2018-09-21T02:17:22.045Z,7.05
2018-09-21T02:19:50.506Z,6.92
2018-09-21T02:22:18.937Z,5.58
2018-09-21T02:24:47.396Z,5.22
2018-09-21T02:27:15.830Z,6.17
2018-09-21T02:29:44.276Z,10.90
2018-09-21T02:32:12.709Z,6.62
2018-09-21T02:34:41.107Z,11.57
2018-09-21T02:37:09.553Z,5.05
2018-09-21T02:39:37.973Z,9.25
2018-09-21T02:42:06.432Z,6.75
2018-09-21T02:44:34.884Z,6.83
2018-09-21T02:47:03.317Z,6.85
2018-09-21T02:49:31.739Z,8.98
2018-09-21T02:52:00.185Z,7.78
2018-09-21T02:54:28.621Z,6.75
2018-09-21T02:56:57.059Z,9.25
2018-09-21T02:59:25.483Z,7.60
2018-09-21T03:01:53.888Z,7.58
2018-09-21T03:04:22.303Z,7.05
2018-09-21T03:06:50.996Z,8.10
2018-09-21T03:09:19.444Z,9.00
2018-09-21T03:11:47.884Z,6.90
2018-09-21T03:14:16.390Z,7.10
2018-09-21T03:16:44.842Z,11.75
2018-09-21T03:19:13.256Z,11.43
2018-09-21T03:21:41.687Z,7.20
2018-09-21T03:24:10.118Z,9.50
2018-09-21T03:26:38.566Z,9.68
2018-09-21T03:29:06.982Z,6.90
2018-09-21T03:31:35.370Z,7.83
2018-09-21T03:34:03.816Z,7.42
2018-09-21T03:36:32.232Z,8.70
2018-09-21T03:39:00.666Z,7.10
2018-09-21T03:41:29.077Z,7.35
2018-09-21T03:43:57.524Z,6.83
2018-09-21T03:46:25.970Z,6.72
2018-09-21T03:48:54.406Z,9.33
2018-09-21T03:51:22.817Z,5.87
2018-09-21T03:53:51.226Z,5.90
2018-09-21T03:56:19.646Z,5.92
2018-09-21T03:58:48.064Z,10.20
2018-09-21T04:01:16.531Z,5.70
2018-09-21T04:03:44.894Z,5.33
2018-09-21T04:06:13.313Z,6.65
2018-09-21T04:08:41.725Z,5.25
2018-09-21T04:11:10.154Z,5.85
2018-09-21T04:13:38.643Z,10.10
2018-09-21T04:16:07.315Z,5.50
2018-09-21T04:18:35.734Z,4.47
2018-09-21T04:21:04.148Z,5.45
2018-09-21T04:23:32.577Z,7.12
2018-09-21T04:26:00.998Z,4.90
2018-09-21T04:28:29.460Z,9.80
2018-09-21T04:30:57.904Z,7.17
2018-09-21T04:33:26.332Z,7.55
2018-09-21T04:35:54.786Z,5.80
2018-09-21T04:38:23.192Z,7.78
2018-09-21T04:40:51.630Z,6.95
2018-09-21T04:43:20.057Z,4.72
2018-09-21T04:45:48.535Z,8.33
2018-09-21T04:48:16.918Z,8.55
2018-09-21T04:50:45.352Z,7.42
2018-09-21T04:53:13.922Z,4.97
2018-09-21T04:55:42.382Z,6.35
2018-09-21T04:58:10.833Z,7.60
2018-09-21T05:00:39.308Z,5.85
2018-09-21T05:03:07.777Z,6.20
2018-09-21T05:05:36.249Z,5.33
2018-09-21T05:08:04.746Z,8.80
2018-09-21T05:10:33.192Z,5.83
2018-09-21T05:13:01.610Z,4.87
2018-09-21T05:15:30.017Z,6.87
2018-09-21T05:17:58.437Z,9.15
2018-09-21T05:20:26.942Z,7.08
2018-09-21T05:22:55.355Z,7.50
2018-09-21T05:25:23.764Z,10.05
2018-09-21T05:27:52.226Z,4.05
2018-09-21T05:30:20.636Z,5.37
2018-09-21T05:32:49.053Z,6.03
2018-09-21T05:35:17.561Z,9.03
2018-09-21T05:37:45.976Z,6.72
2018-09-21T05:40:14.407Z,5.28
2018-09-21T05:42:42.831Z,6.85
2018-09-21T05:45:11.283Z,7.20
2018-09-21T05:47:40.031Z,4.95
2018-09-21T05:50:08.481Z,5.30
2018-09-21T05:52:36.906Z,5.58
2018-09-21T05:55:05.625Z,5.75
2018-09-21T05:57:34.092Z,5.53
2018-09-21T06:00:02.553Z,4.90
2018-09-21T06:02:31.094Z,4.10
2018-09-21T06:05:03.887Z,5.10
2018-09-21T06:07:32.513Z,4.70
2018-09-21T06:10:00.949Z,3.72
2018-09-21T06:12:29.384Z,5.90
2018-09-21T06:14:57.845Z,5.72
2018-09-21T06:17:26.331Z,7.72
2018-09-21T06:19:55.016Z,6.70
2018-09-21T06:22:23.548Z,5.95
2018-09-21T06:24:51.998Z,6.75
2018-09-21T06:27:20.405Z,3.12
2018-09-21T06:29:48.859Z,5.33
2018-09-21T06:32:17.299Z,5.28
2018-09-21T06:34:45.774Z,5.03
2018-09-21T06:37:14.290Z,3.42
2018-09-21T06:39:42.939Z,4.78
2018-09-21T06:42:11.389Z,4.10
2018-09-21T06:44:39.849Z,7.62
2018-09-21T06:47:09.626Z,8.08
2018-09-21T06:49:44.715Z,6.33
2018-09-21T06:52:19.780Z,7.55
2018-09-21T06:54:48.274Z,4.80
2018-09-21T06:57:16.822Z,5.00
2018-09-21T06:59:45.235Z,6.90
2018-09-21T07:02:13.688Z,4.67
2018-09-21T07:04:42.110Z,7.37
2018-09-21T07:07:10.882Z,6.10
2018-09-21T07:09:39.306Z,3.87
2018-09-21T07:12:07.764Z,5.05
2018-09-21T07:14:36.231Z,5.37
2018-09-21T07:17:04.697Z,6.05
2018-09-21T07:19:33.174Z,5.65
2018-09-21T07:22:01.600Z,7.35
2018-09-21T07:24:30.032Z,6.12
2018-09-21T07:26:58.467Z,8.13
2018-09-21T07:29:26.919Z,5.83
2018-09-21T07:31:55.357Z,5.03
2018-09-21T07:34:23.812Z,5.20
2018-09-21T07:36:52.247Z,7.28
2018-09-21T07:39:20.690Z,6.90
2018-09-21T07:41:49.151Z,7.03
2018-09-21T07:44:17.631Z,9.18
2018-09-21T07:46:46.030Z,7.55
2018-09-21T07:49:14.481Z,5.58
2018-09-21T07:51:42.927Z,6.87
2018-09-21T07:54:11.343Z,7.83
2018-09-21T07:56:39.819Z,6.15
2018-09-21T07:59:08.307Z,6.25
2018-09-21T08:01:36.758Z,8.43
2018-09-21T08:04:05.183Z,8.60
2018-09-21T08:06:33.639Z,7.55
2018-09-21T08:09:02.124Z,7.22
2018-09-21T08:11:30.571Z,8.70
2018-09-21T08:13:58.999Z,7.65
2018-09-21T08:16:27.425Z,7.45
2018-09-21T08:18:55.860Z,7.80
2018-09-21T08:21:24.304Z,9.30
2018-09-21T08:23:52.766Z,10.25
2018-09-21T08:26:21.195Z,7.30
2018-09-21T08:28:49.680Z,8.15
2018-09-21T08:31:18.192Z,9.80
2018-09-21T08:33:46.663Z,10.08
2018-09-21T08:36:15.090Z,7.67
2018-09-21T08:38:43.528Z,11.20
2018-09-21T08:41:11.952Z,8.08
2018-09-21T08:43:40.374Z,11.43
2018-09-21T08:46:08.836Z,11.28
2018-09-21T08:48:37.282Z,8.15
2018-09-21T08:51:05.890Z,11.97
2018-09-21T08:53:34.326Z,11.08
2018-09-21T08:56:02.776Z,10.70
2018-09-21T08:58:31.244Z,10.55
2018-09-21T09:00:59.707Z,12.93
2018-09-21T09:03:28.152Z,11.10
2018-09-21T09:05:56.571Z,12.18
2018-09-21T09:08:25.766Z,10.48
2018-09-21T09:10:54.621Z,9.15
2018-09-21T09:13:23.016Z,9.65
2018-09-21T09:15:51.796Z,14.18
2018-09-21T09:18:20.247Z,9.00
2018-09-21T09:20:48.706Z,9.18
2018-09-21T09:23:17.205Z,8.70
2018-09-21T09:25:45.576Z,10.35
2018-09-21T09:28:14.006Z,8.40
2018-09-21T09:30:42.431Z,10.25
2018-09-21T09:33:10.918Z,11.28
2018-09-21T09:35:39.349Z,6.53
2018-09-21T09:38:07.773Z,9.13
2018-09-21T09:40:36.198Z,4.92
2018-09-21T09:43:04.704Z,6.00
2018-09-21T09:45:33.130Z,5.87
2018-09-21T09:48:01.534Z,5.33
2018-09-21T09:50:30.025Z,6.58
2018-09-21T09:52:58.468Z,3.02
2018-09-21T09:55:26.895Z,6.45
2018-09-21T09:57:55.347Z,1.95
2018-09-21T10:00:28.945Z,3.52
2018-09-21T10:02:57.415Z,2.83
2018-09-21T10:05:25.867Z,5.22
2018-09-21T10:07:54.328Z,1.72
2018-09-21T10:10:22.822Z,5.00
2018-09-21T10:12:51.232Z,3.98
2018-09-21T10:15:19.734Z,2.83
2018-09-21T10:17:48.276Z,3.37
2018-09-21T10:20:16.729Z,3.72
2018-09-21T10:22:45.175Z,4.95
2018-09-21T10:25:13.657Z,4.08
2018-09-21T10:27:42.221Z,3.17
2018-09-21T10:30:10.553Z,3.87
2018-09-21T10:32:38.989Z,5.80
2018-09-21T10:35:07.432Z,3.67
2018-09-21T10:37:35.851Z,4.20
2018-09-21T10:40:04.387Z,2.22
2018-09-21T10:42:32.831Z,1.90
2018-09-21T10:45:01.231Z,4.05
2018-09-21T10:47:30.499Z,4.22
2018-09-21T10:49:58.935Z,2.62
2018-09-21T10:52:27.339Z,2.85
2018-09-21T10:54:55.792Z,1.30
2018-09-21T10:57:24.221Z,3.52
2018-09-21T10:59:52.735Z,5.00
2018-09-21T11:02:21.224Z,3.55
2018-09-21T11:04:49.685Z,6.90
2018-09-21T11:07:18.180Z,2.15
2018-09-21T11:09:46.612Z,2.67
2018-09-21T11:12:15.057Z,3.77
2018-09-21T11:14:43.479Z,2.95
2018-09-21T11:17:12.003Z,3.30
2018-09-21T11:19:40.470Z,2.87
2018-09-21T11:22:09.351Z,4.80
2018-09-21T11:24:37.782Z,3.87
2018-09-21T11:27:06.321Z,4.15
2018-09-21T11:29:34.749Z,4.50
2018-09-21T11:32:03.241Z,2.17
2018-09-21T11:34:31.686Z,4.30
2018-09-21T11:37:00.121Z,3.80
2018-09-21T11:39:28.531Z,3.75
2018-09-21T11:41:57.053Z,1.85
2018-09-21T11:44:25.499Z,4.20
2018-09-21T11:46:54.063Z,2.22
2018-09-21T11:49:22.435Z,3.80
2018-09-21T11:51:50.917Z,2.37
2018-09-21T11:54:19.386Z,1.62
2018-09-21T11:56:47.834Z,2.58
2018-09-21T11:59:16.300Z,3.60
2018-09-21T12:01:44.771Z,4.87
2018-09-21T12:04:13.214Z,10.55
2018-09-21T12:06:41.674Z,13.05
2018-09-21T12:09:10.114Z,8.13
2018-09-21T12:11:38.533Z,4.10
2018-09-21T12:14:06.962Z,3.12
2018-09-21T12:16:35.400Z,6.12
2018-09-21T12:19:03.840Z,2.02
2018-09-21T12:21:32.296Z,2.85
2018-09-21T12:24:00.736Z,3.20
2018-09-21T12:26:29.176Z,5.95
2018-09-21T12:28:57.623Z,1.85
2018-09-21T12:31:26.053Z,1.92
2018-09-21T12:33:54.616Z,3.55
2018-09-21T12:36:23.171Z,1.27
2018-09-21T12:38:51.598Z,1.95
2018-09-21T12:41:20.057Z,2.87
2018-09-21T12:43:48.562Z,4.40
2018-09-21T12:46:23.983Z,3.20
2018-09-21T12:48:55.207Z,2.85
2018-09-21T12:51:23.866Z,4.03
2018-09-21T12:53:52.281Z,2.35
2018-09-21T12:56:20.733Z,3.25
2018-09-21T12:58:49.341Z,2.52
2018-09-21T13:01:17.696Z,4.67
2018-09-21T13:03:46.182Z,2.55
2018-09-21T13:06:14.861Z,4.78
2018-09-21T13:08:43.291Z,2.75
2018-09-21T13:11:11.721Z,3.52
2018-09-21T13:15:34.497Z,4.47
2018-09-21T13:18:04.225Z,5.62
2018-09-21T13:20:32.735Z,3.95
2018-09-21T13:23:01.438Z,1.35
2018-09-21T13:25:30.088Z,2.83
2018-09-21T13:27:58.737Z,5.03
2018-09-21T13:30:27.333Z,3.08
2018-09-21T13:32:56.015Z,4.70
2018-09-21T13:35:24.647Z,6.85
2018-09-21T13:37:53.291Z,2.98
2018-09-21T13:40:21.816Z,3.55
2018-09-21T13:42:50.498Z,5.60
2018-09-21T13:45:19.406Z,4.58
2018-09-21T13:47:48.153Z,5.65
2018-09-21T13:50:16.657Z,5.00
2018-09-21T13:52:45.298Z,3.55
2018-09-21T13:55:13.815Z,4.40
2018-09-21T13:57:43.407Z,5.55
2018-09-21T14:00:12.655Z,4.30
2018-09-21T14:02:42.495Z,6.75
2018-09-21T14:05:11.297Z,5.53
2018-09-21T14:07:40.616Z,5.85
2018-09-21T14:10:09.338Z,3.95
2018-09-21T14:12:38.260Z,4.42
2018-09-21T14:15:07.420Z,2.87
2018-09-21T14:17:35.937Z,4.08
2018-09-21T14:20:04.550Z,5.55
2018-09-21T14:22:33.120Z,5.50
2018-09-21T14:25:01.976Z,2.67
2018-09-21T14:27:30.481Z,4.60
2018-09-21T14:29:59.074Z,2.05
2018-09-21T14:32:27.584Z,3.83
2018-09-21T14:34:56.261Z,5.83
2018-09-21T14:37:24.765Z,4.72
2018-09-21T14:39:53.431Z,2.45
2018-09-21T14:42:22.095Z,2.83
2018-09-21T14:44:50.638Z,5.40
2018-09-21T14:47:19.320Z,2.72
2018-09-21T14:49:47.822Z,3.47
2018-09-21T14:52:16.427Z,4.05
2018-09-21T14:54:44.962Z,6.90
2018-09-21T14:57:15.720Z,2.72
2018-09-21T14:59:44.319Z,2.85
2018-09-21T15:02:12.948Z,4.28
2018-09-21T15:04:41.689Z,5.33
2018-09-21T15:07:10.375Z,5.47
2018-09-21T15:09:38.973Z,4.80
2018-09-21T15:12:07.744Z,4.22
2018-09-21T15:14:37.448Z,2.85
2018-09-21T15:17:06.007Z,2.95
2018-09-21T15:19:34.617Z,4.83
2018-09-21T15:22:03.179Z,3.52
2018-09-21T15:24:31.776Z,10.03
2018-09-21T15:27:00.767Z,5.97
2018-09-21T15:29:29.375Z,4.30
2018-09-21T15:31:57.903Z,5.67
2018-09-21T15:34:26.565Z,8.40
2018-09-21T15:36:55.106Z,4.90
2018-09-21T15:39:23.736Z,6.58
2018-09-21T15:41:52.243Z,3.07
2018-09-21T15:44:20.869Z,6.33
2018-09-21T15:46:49.413Z,4.37
2018-09-21T15:49:18.031Z,4.30
2018-09-21T15:51:46.743Z,4.70
2018-09-21T15:54:15.258Z,6.47
2018-09-21T15:56:43.807Z,4.92
2018-09-21T15:59:12.390Z,4.73
2018-09-21T16:01:41.703Z,8.37
2018-09-21T16:04:10.175Z,8.63
2018-09-21T16:06:39.988Z,6.70
2018-09-21T16:09:09.088Z,5.77
2018-09-21T16:11:38.716Z,5.00
2018-09-21T16:14:08.242Z,5.67
2018-09-21T16:16:37.773Z,4.33
2018-09-21T16:19:06.661Z,4.80
2018-09-21T16:21:35.213Z,6.37
2018-09-21T16:24:03.664Z,5.03
2018-09-21T16:26:32.148Z,5.60
2018-09-21T16:29:00.576Z,4.60
2018-09-21T16:31:29.056Z,7.17
2018-09-21T16:33:57.621Z,10.13
2018-09-21T16:36:26.165Z,3.87
2018-09-21T16:38:54.611Z,3.57
2018-09-21T16:41:23.180Z,4.63
2018-09-21T16:43:52.388Z,5.03
2018-09-21T16:46:20.852Z,5.57
2018-09-21T16:48:49.455Z,9.70
2018-09-21T16:51:18.004Z,5.07
2018-09-21T16:53:46.531Z,4.37
2018-09-21T16:56:15.083Z,5.53
2018-09-21T16:58:43.630Z,6.30
2018-09-21T17:01:12.242Z,7.80
2018-09-21T17:03:40.893Z,6.80
2018-09-21T17:06:09.446Z,8.33
2018-09-21T17:08:38.165Z,8.30
2018-09-21T17:11:06.746Z,4.27
2018-09-21T17:13:35.369Z,10.27
2018-09-21T17:16:03.898Z,7.60
2018-09-21T17:18:32.517Z,9.03
2018-09-21T17:21:01.063Z,6.93
2018-09-21T17:23:29.682Z,5.77
2018-09-21T17:25:58.526Z,7.87
2018-09-21T17:28:27.008Z,6.77
2018-09-21T17:30:55.468Z,5.37
2018-09-21T17:33:23.931Z,7.27
2018-09-21T17:35:52.403Z,8.33
2018-09-21T17:38:20.800Z,9.83
2018-09-21T17:40:49.198Z,5.47
2018-09-21T17:43:17.651Z,8.07
2018-09-21T17:45:46.196Z,8.90
2018-09-21T17:48:14.703Z,9.27
2018-09-21T17:50:43.141Z,9.27
2018-09-21T17:53:11.692Z,4.30
2018-09-21T17:55:40.092Z,6.33
2018-09-21T17:58:08.497Z,5.83
2018-09-21T18:00:36.907Z,5.53
2018-09-21T18:03:05.392Z,9.37
2018-09-21T18:05:33.822Z,9.43
2018-09-21T18:08:02.241Z,9.87
2018-09-21T18:10:30.659Z,5.80
2018-09-21T18:12:59.176Z,8.17
2018-09-21T18:15:27.713Z,6.57
2018-09-21T18:17:56.164Z,7.50
2018-09-21T18:20:24.604Z,7.50
2018-09-21T18:22:53.209Z,8.77
2018-09-21T18:25:21.652Z,13.27
2018-09-21T18:27:50.065Z,9.13
2018-09-21T18:30:18.555Z,5.37
2018-09-21T18:32:47.007Z,13.73
2018-09-21T18:35:15.528Z,11.73
2018-09-21T18:37:44.300Z,8.07
2018-09-21T18:40:12.758Z,12.67
2018-09-21T18:42:41.209Z,11.47
2018-09-21T18:45:09.675Z,9.83
2018-09-21T18:47:38.119Z,11.67
2018-09-21T18:50:06.753Z,10.37
2018-09-21T18:52:35.161Z,13.90
2018-09-21T18:55:03.843Z,11.10
2018-09-21T18:57:33.371Z,8.30
2018-09-21T19:00:01.819Z,5.87
2018-09-21T19:02:30.284Z,6.73
2018-09-21T19:04:58.692Z,5.23
2018-09-21T19:07:29.932Z,6.30
2018-09-21T19:09:59.181Z,13.37
2018-09-21T19:12:27.755Z,9.03
2018-09-21T19:14:56.224Z,6.03
2018-09-21T19:17:24.985Z,8.83
2018-09-21T19:19:53.729Z,9.53
2018-09-21T19:22:22.493Z,10.73
2018-09-21T19:24:50.912Z,13.87
2018-09-21T19:27:19.411Z,9.70
2018-09-21T19:29:47.882Z,10.60
2018-09-21T19:32:16.371Z,10.97
2018-09-21T19:34:46.447Z,10.50
2018-09-21T19:37:15.561Z,5.50
2018-09-21T19:39:44.037Z,9.63
2018-09-21T19:42:12.482Z,8.30
2018-09-21T19:44:40.998Z,5.30
2018-09-21T19:47:09.479Z,10.80
2018-09-21T19:49:37.914Z,11.83
2018-09-21T19:52:06.491Z,10.07
2018-09-21T19:54:34.988Z,14.20
2018-09-21T19:57:03.469Z,9.57
2018-09-21T19:59:32.057Z,10.43
2018-09-21T20:02:00.525Z,13.23
2018-09-21T20:04:28.956Z,11.90
2018-09-21T20:06:57.439Z,15.00
2018-09-21T20:09:25.877Z,13.00
2018-09-21T20:11:54.452Z,14.43
2018-09-21T20:14:22.904Z,10.03
2018-09-21T20:16:51.338Z,15.20
2018-09-21T20:19:19.891Z,15.93
2018-09-21T20:21:48.320Z,12.93
2018-09-21T20:24:16.784Z,11.97
2018-09-21T20:26:45.310Z,10.37
2018-09-21T20:29:13.735Z,9.03
2018-09-21T20:31:47.368Z,12.17
2018-09-21T20:34:15.822Z,7.47
2018-09-21T20:36:44.397Z,10.50
2018-09-21T20:39:12.874Z,15.57
2018-09-21T20:41:41.321Z,12.13
2018-09-21T20:44:10.634Z,11.70
2018-09-21T20:46:39.095Z,9.77
2018-09-21T20:49:07.583Z,11.40
2018-09-21T20:51:36.018Z,12.23
2018-09-21T20:54:04.532Z,13.70
2018-09-21T20:56:33.029Z,13.57
2018-09-21T20:59:01.551Z,12.27
2018-09-21T21:01:29.963Z,11.10
2018-09-21T21:03:58.496Z,14.40
2018-09-21T21:06:26.922Z,11.87
2018-09-21T21:08:55.340Z,11.60
2018-09-21T21:11:23.776Z,11.60
2018-09-21T21:13:52.300Z,14.30
2018-09-21T21:16:20.746Z,19.87
2018-09-21T21:18:49.201Z,14.70
2018-09-21T21:21:17.671Z,11.30
2018-09-21T21:23:46.293Z,10.90
2018-09-21T21:26:14.748Z,11.90
2018-09-21T21:28:43.202Z,9.33
2018-09-21T21:31:11.720Z,13.33
2018-09-21T21:33:40.228Z,14.63
2018-09-21T21:36:09.001Z,12.63
2018-09-21T21:38:37.450Z,13.80
2018-09-21T21:41:05.912Z,12.40
2018-09-21T21:43:34.352Z,9.80
2018-09-21T21:46:02.780Z,15.73
2018-09-21T21:48:31.226Z,12.43
2018-09-21T21:50:59.660Z,12.53
2018-09-21T21:53:28.114Z,9.60
2018-09-21T21:55:56.566Z,13.07
2018-09-21T21:58:25.067Z,11.33
2018-09-21T22:00:58.813Z,14.30
2018-09-21T22:03:27.276Z,19.30
2018-09-21T22:05:55.750Z,13.70
2018-09-21T22:08:24.163Z,12.73
2018-09-21T22:10:52.590Z,15.40
2018-09-21T22:13:26.245Z,15.20
2018-09-21T22:15:54.659Z,10.67
2018-09-21T22:18:23.108Z,14.60
2018-09-21T22:20:51.607Z,15.33
2018-09-21T22:23:20.096Z,13.73
2018-09-21T22:25:49.159Z,13.27
2018-09-21T22:28:17.603Z,13.23
2018-09-21T22:30:46.025Z,15.33
2018-09-21T22:33:14.428Z,12.77
2018-09-21T22:35:42.867Z,15.60
2018-09-21T22:38:11.352Z,10.03
2018-09-21T22:40:39.779Z,9.97
2018-09-21T22:43:08.279Z,11.53
2018-09-21T22:45:36.732Z,13.47
2018-09-21T22:48:05.528Z,11.57
2018-09-21T22:50:34.000Z,12.83
2018-09-21T22:53:02.455Z,8.97
2018-09-21T22:55:30.968Z,14.70
2018-09-21T22:57:59.451Z,13.50
2018-09-21T23:00:27.888Z,10.47
2018-09-21T23:02:56.339Z,12.57
2018-09-21T23:05:24.807Z,12.23
2018-09-21T23:07:53.515Z,11.57
2018-09-21T23:10:21.997Z,13.53
2018-09-21T23:12:50.415Z,12.83
2018-09-21T23:15:18.935Z,14.03
2018-09-21T23:17:47.507Z,15.10
2018-09-21T23:20:15.967Z,14.27
2018-09-21T23:22:44.774Z,14.67
2018-09-21T23:25:13.303Z,15.37
2018-09-21T23:27:41.728Z,15.83
2018-09-21T23:30:10.242Z,16.53
2018-09-21T23:32:38.701Z,10.70
2018-09-21T23:35:07.160Z,11.57
2018-09-21T23:37:35.597Z,14.27
2018-09-21T23:40:04.088Z,14.90
2018-09-21T23:42:32.527Z,17.87
2018-09-21T23:45:00.972Z,12.53
2018-09-21T23:47:29.573Z,12.10
2018-09-21T23:49:57.990Z,9.03
2018-09-21T23:52:26.508Z,14.30
2018-09-21T23:54:54.934Z,17.37
2018-09-21T23:57:23.360Z,9.77
2018-09-21T23:59:51.804Z,14.70
